createdAt,value
2022-08-17T00:00:40.543Z,17.47
2022-08-17T00:05:48.668Z,17.3
2022-08-17T00:10:56.632Z,17.09
2022-08-17T00:16:04.698Z,16.9
2022-08-17T00:21:11.239Z,16.66
2022-08-17T00:26:19.596Z,16.6
2022-08-17T00:31:28.033Z,16.8
2022-08-17T00:36:36.926Z,16.88
2022-08-17T00:41:44.548Z,17.14
2022-08-17T00:46:51.737Z,17.11
2022-08-17T00:51:59.441Z,17.02
2022-08-17T00:57:07.048Z,16.96
2022-08-17T01:02:15.886Z,17.12
2022-08-17T01:07:23.434Z,17.03
2022-08-17T01:12:31.492Z,16.94
2022-08-17T01:17:38.812Z,17.15
2022-08-17T01:22:47.762Z,17.04
2022-08-17T01:37:06.309Z,16.82
2022-08-17T01:42:12.797Z,16.47
2022-08-17T01:47:22.329Z,16.25
2022-08-17T01:52:28.384Z,16.15
2022-08-17T01:57:36.216Z,16.06
2022-08-17T02:02:43.432Z,15.84
2022-08-17T02:07:50.570Z,15.7
2022-08-17T02:12:58.785Z,15.6
2022-08-17T02:18:06.306Z,15.62
2022-08-17T02:23:13.499Z,15.55
2022-08-17T02:28:21.128Z,15.51
2022-08-17T02:33:27.903Z,15.36
2022-08-17T02:38:36.895Z,15.16
2022-08-17T02:43:44.235Z,14.94
2022-08-17T02:48:52.341Z,14.72
2022-08-17T02:53:59.965Z,14.57
2022-08-17T02:59:07.515Z,14.35
2022-08-17T03:04:14.359Z,14.24
2022-08-17T03:09:22.322Z,14.26
2022-08-17T03:14:30.272Z,14.16
2022-08-17T03:19:37.321Z,14.22
2022-08-17T03:24:44.631Z,14.19
2022-08-17T03:29:52.211Z,14.46
2022-08-17T03:35:00.167Z,14.3
2022-08-17T03:40:07.291Z,14.13
2022-08-17T03:45:14.487Z,14.05
2022-08-17T03:50:22.871Z,13.98
2022-08-17T03:55:31.019Z,13.88
2022-08-17T04:00:37.335Z,13.76
2022-08-17T04:05:45.173Z,13.8
2022-08-17T04:10:54.045Z,13.83
2022-08-17T04:16:02.314Z,13.84
2022-08-17T04:21:10.132Z,14.17
2022-08-17T04:26:17.996Z,15.04
2022-08-17T04:31:25.637Z,16.19
2022-08-17T04:36:34.704Z,17.67
2022-08-17T04:41:44.262Z,19.17
2022-08-17T04:46:51.690Z,20.41
2022-08-17T04:52:07.261Z,21.5
2022-08-17T04:57:15.384Z,21.54
2022-08-17T05:02:22.315Z,21.78
2022-08-17T05:07:29.486Z,21.73
2022-08-17T05:12:37.384Z,22.04
2022-08-17T05:17:44.771Z,22.11
2022-08-17T05:22:52.496Z,23.31
2022-08-17T05:27:59.610Z,23.98
2022-08-17T05:33:07.868Z,23.9
2022-08-17T05:38:15.858Z,23.6
2022-08-17T05:43:24.037Z,24.32
2022-08-17T05:48:38.086Z,24.3
2022-08-17T05:53:45.855Z,24.44
2022-08-17T05:58:54.063Z,25.57
2022-08-17T06:04:01.888Z,26.39
2022-08-17T06:09:09.188Z,26.8
2022-08-17T06:14:16.982Z,27.32
2022-08-17T06:19:23.934Z,28.0
2022-08-17T06:24:31.526Z,28.2
2022-08-17T06:29:38.145Z,28.52
2022-08-17T06:34:45.747Z,28.33
2022-08-17T06:39:53.779Z,28.19
2022-08-17T06:45:00.394Z,28.79
2022-08-17T06:50:07.618Z,28.96
2022-08-17T06:55:15.281Z,28.64
2022-08-17T07:00:22.883Z,28.04
2022-08-17T07:05:31.094Z,27.48
2022-08-17T07:15:40.968Z,27.01
2022-08-17T07:16:43.776Z,27.0
2022-08-17T07:21:49.867Z,27.12
2022-08-17T07:26:57.575Z,27.5
2022-08-17T07:32:06.524Z,27.44
2022-08-17T07:37:13.841Z,27.44
2022-08-17T07:42:22.814Z,27.4
2022-08-17T07:47:30.173Z,27.36
2022-08-17T07:52:37.933Z,27.54
2022-08-17T07:57:45.002Z,27.64
2022-08-17T08:02:53.338Z,28.12
2022-08-17T08:08:02.947Z,28.72
2022-08-17T08:13:11.184Z,29.2
2022-08-17T08:23:47.713Z,30.31
2022-08-17T08:28:55.879Z,30.85
2022-08-17T08:34:03.451Z,31.1
2022-08-17T08:39:12.736Z,31.36
2022-08-17T08:44:20.649Z,31.99
2022-08-17T08:49:28.880Z,32.33
2022-08-17T08:54:37.288Z,32.67
2022-08-17T08:59:45.821Z,32.86
2022-08-17T09:04:54.241Z,32.97
2022-08-17T09:10:01.902Z,32.9
2022-08-17T09:15:09.865Z,32.85
2022-08-17T09:20:16.894Z,32.89
2022-08-17T09:25:24.357Z,33.07
2022-08-17T09:30:32.111Z,33.22
2022-08-17T09:35:40.387Z,33.56
2022-08-17T09:40:48.196Z,33.6
2022-08-17T09:45:56.615Z,33.22
2022-08-17T09:51:04.798Z,33.39
2022-08-17T09:56:12.409Z,33.46
2022-08-17T10:01:20.287Z,33.76
2022-08-17T10:06:27.413Z,33.67
2022-08-17T10:11:35.583Z,34.01
2022-08-17T10:16:43.711Z,33.97
2022-08-17T10:21:52.157Z,33.89
2022-08-17T10:26:59.014Z,34.29
2022-08-17T10:32:06.140Z,34.34
2022-08-17T10:37:13.812Z,34.51
2022-08-17T10:42:22.159Z,34.46
2022-08-17T10:47:29.252Z,34.62
2022-08-17T10:52:38.077Z,34.99
2022-08-17T10:57:45.593Z,35.21
2022-08-17T11:02:54.935Z,34.94
2022-08-17T11:08:02.167Z,35.11
2022-08-17T11:13:09.738Z,35.53
2022-08-17T11:18:18.364Z,35.89
2022-08-17T11:23:26.302Z,35.99
2022-08-17T11:28:33.539Z,36.06
2022-08-17T11:33:41.566Z,36.49
2022-08-17T11:38:50.331Z,36.86
2022-08-17T11:43:58.296Z,36.99
2022-08-17T11:49:06.008Z,37.08
2022-08-17T11:54:14.618Z,36.92
2022-08-17T11:59:27.810Z,37.11
2022-08-17T12:04:34.408Z,37.32
2022-08-17T12:09:42.276Z,37.72
2022-08-17T12:14:48.719Z,38.26
2022-08-17T12:19:55.412Z,38.2
2022-08-17T12:25:02.495Z,38.02
2022-08-17T12:30:10.807Z,38.57
2022-08-17T12:35:17.678Z,38.4
2022-08-17T12:40:24.539Z,39.04
2022-08-17T12:45:32.057Z,38.88
2022-08-17T12:50:39.827Z,38.29
2022-08-17T12:55:46.260Z,38.66
2022-08-17T13:00:54.940Z,38.2
2022-08-17T13:06:01.864Z,38.31
2022-08-17T13:11:09.053Z,39.11
2022-08-17T13:16:16.928Z,38.82
2022-08-17T13:21:25.255Z,38.7
2022-08-17T13:26:33.548Z,39.46
2022-08-17T13:31:41.801Z,40.77
2022-08-17T13:36:49.633Z,40.26
2022-08-17T13:41:56.042Z,39.56
2022-08-17T13:47:03.918Z,40.26
2022-08-17T13:52:12.521Z,40.4
2022-08-17T13:57:20.243Z,41.07
2022-08-17T14:02:27.450Z,42.19
2022-08-17T14:07:34.326Z,41.56
2022-08-17T14:12:42.831Z,40.82
2022-08-17T14:17:50.532Z,41.66
2022-08-17T14:22:58.495Z,42.02
2022-08-17T14:28:05.352Z,41.16
2022-08-17T14:33:13.392Z,39.88
2022-08-17T14:38:22.121Z,41.88
2022-08-17T14:43:29.496Z,42.26
2022-08-17T14:48:36.744Z,40.38
2022-08-17T14:53:45.047Z,41.54
2022-08-17T14:58:52.779Z,40.14
2022-08-17T15:04:04.788Z,39.26
2022-08-17T15:09:12.506Z,38.21
2022-08-17T15:14:19.736Z,37.45
2022-08-17T15:19:27.951Z,38.57
2022-08-17T15:24:34.777Z,38.39
2022-08-17T15:29:42.722Z,36.64
2022-08-17T15:34:51.027Z,36.2
2022-08-17T15:39:58.923Z,36.07
2022-08-17T15:45:06.759Z,34.98
2022-08-17T15:50:19.663Z,35.06
2022-08-17T15:55:27.190Z,35.21
2022-08-17T16:00:34.566Z,35.22
2022-08-17T16:05:41.053Z,34.97
2022-08-17T16:10:49.853Z,34.6
2022-08-17T16:15:56.445Z,34.04
2022-08-17T16:21:04.453Z,33.26
2022-08-17T16:26:12.629Z,32.74
2022-08-17T16:31:21.270Z,32.43
2022-08-17T16:36:28.910Z,32.3
2022-08-17T16:41:37.710Z,32.27
2022-08-17T16:46:44.341Z,32.25
2022-08-17T16:51:52.538Z,31.9
2022-08-17T16:57:00.635Z,31.47
2022-08-17T17:02:08.562Z,31.12
2022-08-17T17:07:15.868Z,30.9
2022-08-17T17:12:23.685Z,30.78
2022-08-17T17:17:31.684Z,30.58
2022-08-17T17:22:39.506Z,30.38
2022-08-17T17:27:46.859Z,30.16
2022-08-17T17:32:54.657Z,29.92
2022-08-17T17:38:02.557Z,29.72
2022-08-17T17:43:09.701Z,29.34
2022-08-17T17:48:16.984Z,28.66
2022-08-17T17:53:25.042Z,27.9
2022-08-17T17:58:32.509Z,27.54
2022-08-17T18:03:40.183Z,27.16
2022-08-17T18:08:47.561Z,26.47
2022-08-17T18:13:55.689Z,25.73
2022-08-17T18:19:03.293Z,25.02
2022-08-17T18:24:10.458Z,24.54
2022-08-17T18:29:17.750Z,24.12
2022-08-17T18:34:24.587Z,23.73
2022-08-17T18:39:33.280Z,23.38
2022-08-17T18:44:40.702Z,23.04
2022-08-17T18:49:48.192Z,22.88
2022-08-17T18:54:56.721Z,22.48
2022-08-17T19:00:10.785Z,22.12
2022-08-17T19:05:17.773Z,21.92
2022-08-17T19:10:24.896Z,21.79
2022-08-17T19:15:31.444Z,21.62
2022-08-17T19:20:38.660Z,21.51
2022-08-17T19:25:46.898Z,21.42
2022-08-17T19:30:53.697Z,21.14
2022-08-17T19:36:01.443Z,20.8
2022-08-17T19:41:10.197Z,20.7
2022-08-17T19:46:17.406Z,20.7
2022-08-17T19:51:26.761Z,20.47
2022-08-17T19:56:34.183Z,20.29
2022-08-17T20:01:42.615Z,20.09
2022-08-17T20:06:52.557Z,19.98
2022-08-17T20:12:00.183Z,19.86
2022-08-17T20:17:06.813Z,19.74
2022-08-17T20:22:14.013Z,19.62
2022-08-17T20:27:22.693Z,19.4
2022-08-17T20:32:30.619Z,19.38
2022-08-17T20:37:37.602Z,19.34
2022-08-17T20:42:45.047Z,19.44
2022-08-17T20:47:53.104Z,19.65
2022-08-17T20:53:01.053Z,19.97
2022-08-17T20:58:09.313Z,20.31
2022-08-17T21:03:16.091Z,20.41
2022-08-17T21:08:23.893Z,20.36
2022-08-17T21:13:31.770Z,20.19
2022-08-17T21:18:39.404Z,19.84
2022-08-17T21:23:47.486Z,19.58
2022-08-17T21:28:54.649Z,19.25
2022-08-17T21:34:01.856Z,18.99
2022-08-17T21:39:09.926Z,18.82
2022-08-17T21:44:19.915Z,18.76
2022-08-17T21:49:26.655Z,18.71
2022-08-17T21:54:33.859Z,18.56
2022-08-17T21:59:41.706Z,18.36
2022-08-17T22:04:49.996Z,18.3
2022-08-17T22:09:58.170Z,18.38
2022-08-17T22:15:05.957Z,18.38
2022-08-17T22:20:14.008Z,18.4
2022-08-17T22:25:22.544Z,18.39
2022-08-17T22:30:29.373Z,18.25
2022-08-17T22:35:37.019Z,18.23
2022-08-17T22:40:45.385Z,18.22
2022-08-17T22:45:53.738Z,18.1
2022-08-17T22:51:01.940Z,17.98
2022-08-17T22:56:09.217Z,17.99
2022-08-17T23:01:16.415Z,18.02
2022-08-17T23:06:23.413Z,17.96
2022-08-17T23:11:31.993Z,17.98
2022-08-17T23:16:40.577Z,17.84
2022-08-17T23:21:48.077Z,17.72
2022-08-17T23:26:55.857Z,17.66
2022-08-17T23:32:04.261Z,17.62
2022-08-17T23:37:11.340Z,17.64
2022-08-17T23:42:19.706Z,17.56
2022-08-17T23:47:27.821Z,17.47
2022-08-17T23:52:35.856Z,17.5
2022-08-17T23:57:44.133Z,17.44
